sensor_id;sensor_type;location;lat;lon;timestamp;temperature;humidity
7143;DHT22;3613;48.902;9.204;2023-09-08T00:02:04;14.20;99.90
7143;DHT22;3613;48.902;9.204;2023-09-08T00:04:30;14.20;99.90
7143;DHT22;3613;48.902;9.204;2023-09-08T00:06:55;14.20;99.90
7143;DHT22;3613;48.902;9.204;2023-09-08T00:09:26;14.20;99.90
7143;DHT22;3613;48.902;9.204;2023-09-08T00:11:54;14.10;99.90
7143;DHT22;3613;48.902;9.204;2023-09-08T00:14:22;14.00;99.90
7143;DHT22;3613;48.902;9.204;2023-09-08T00:16:47;14.10;99.90
7143;DHT22;3613;48.902;9.204;2023-09-08T00:19:13;14.00;99.90
7143;DHT22;3613;48.902;9.204;2023-09-08T00:21:39;14.00;99.90
7143;DHT22;3613;48.902;9.204;2023-09-08T00:24:05;13.90;99.90
7143;DHT22;3613;48.902;9.204;2023-09-08T00:26:31;13.90;99.90
7143;DHT22;3613;48.902;9.204;2023-09-08T00:28:57;13.90;99.90
7143;DHT22;3613;48.902;9.204;2023-09-08T00:31:22;13.90;99.90
7143;DHT22;3613;48.902;9.204;2023-09-08T00:33:48;13.90;99.90
7143;DHT22;3613;48.902;9.204;2023-09-08T00:36:16;13.80;99.90
7143;DHT22;3613;48.902;9.204;2023-09-08T00:38:41;13.80;99.90
7143;DHT22;3613;48.902;9.204;2023-09-08T00:41:07;13.90;99.90
7143;DHT22;3613;48.902;9.204;2023-09-08T00:43:33;13.70;99.90
7143;DHT22;3613;48.902;9.204;2023-09-08T00:46:01;13.70;99.90
7143;DHT22;3613;48.902;9.204;2023-09-08T00:48:28;13.70;99.90
7143;DHT22;3613;48.902;9.204;2023-09-08T00:50:57;13.80;99.90
7143;DHT22;3613;48.902;9.204;2023-09-08T00:53:25;13.70;99.90
7143;DHT22;3613;48.902;9.204;2023-09-08T00:55:51;13.70;99.90
7143;DHT22;3613;48.902;9.204;2023-09-08T00:58:17;13.60;99.90
7143;DHT22;3613;48.902;9.204;2023-09-08T01:00:43;13.60;99.90
7143;DHT22;3613;48.902;9.204;2023-09-08T01:03:12;13.60;99.90
7143;DHT22;3613;48.902;9.204;2023-09-08T01:05:38;13.60;99.90
7143;DHT22;3613;48.902;9.204;2023-09-08T01:08:07;13.60;99.90
7143;DHT22;3613;48.902;9.204;2023-09-08T01:10:35;13.60;99.90
7143;DHT22;3613;48.902;9.204;2023-09-08T01:13:04;13.60;99.90
7143;DHT22;3613;48.902;9.204;2023-09-08T01:15:30;13.50;99.90
7143;DHT22;3613;48.902;9.204;2023-09-08T01:17:56;13.50;99.90
7143;DHT22;3613;48.902;9.204;2023-09-08T01:20:30;13.60;99.90
7143;DHT22;3613;48.902;9.204;2023-09-08T01:25:49;13.40;99.90
7143;DHT22;3613;48.902;9.204;2023-09-08T01:28:17;13.40;99.90
7143;DHT22;3613;48.902;9.204;2023-09-08T01:30:44;13.40;99.90
7143;DHT22;3613;48.902;9.204;2023-09-08T01:33:10;13.30;99.90
7143;DHT22;3613;48.902;9.204;2023-09-08T01:35:36;13.40;99.90
7143;DHT22;3613;48.902;9.204;2023-09-08T01:38:05;13.30;99.90
7143;DHT22;3613;48.902;9.204;2023-09-08T01:40:30;13.30;99.90
7143;DHT22;3613;48.902;9.204;2023-09-08T01:42:56;13.20;99.90
7143;DHT22;3613;48.902;9.204;2023-09-08T01:45:23;13.30;99.90
7143;DHT22;3613;48.902;9.204;2023-09-08T01:47:54;13.30;99.90
7143;DHT22;3613;48.902;9.204;2023-09-08T01:50:19;13.20;99.90
7143;DHT22;3613;48.902;9.204;2023-09-08T01:52:47;13.20;99.90
7143;DHT22;3613;48.902;9.204;2023-09-08T01:55:14;13.20;99.90
7143;DHT22;3613;48.902;9.204;2023-09-08T01:57:40;13.20;99.90
7143;DHT22;3613;48.902;9.204;2023-09-08T02:00:06;13.90;99.90
7143;DHT22;3613;48.902;9.204;2023-09-08T02:02:36;13.10;99.90
7143;DHT22;3613;48.902;9.204;2023-09-08T02:05:02;13.10;99.90
7143;DHT22;3613;48.902;9.204;2023-09-08T02:07:28;13.10;99.90
7143;DHT22;3613;48.902;9.204;2023-09-08T02:09:54;13.00;99.90
7143;DHT22;3613;48.902;9.204;2023-09-08T02:12:21;13.00;99.90
7143;DHT22;3613;48.902;9.204;2023-09-08T02:14:48;13.00;99.90
7143;DHT22;3613;48.902;9.204;2023-09-08T02:17:16;13.00;99.90
7143;DHT22;3613;48.902;9.204;2023-09-08T02:19:41;12.90;99.90
7143;DHT22;3613;48.902;9.204;2023-09-08T02:22:07;13.00;99.90
7143;DHT22;3613;48.902;9.204;2023-09-08T02:24:32;12.90;99.90
7143;DHT22;3613;48.902;9.204;2023-09-08T02:26:58;12.80;99.90
7143;DHT22;3613;48.902;9.204;2023-09-08T02:29:26;13.00;99.90
7143;DHT22;3613;48.902;9.204;2023-09-08T02:31:51;12.90;99.90
7143;DHT22;3613;48.902;9.204;2023-09-08T02:34:19;12.90;99.90
7143;DHT22;3613;48.902;9.204;2023-09-08T02:36:47;12.90;99.90
7143;DHT22;3613;48.902;9.204;2023-09-08T02:39:13;13.00;99.90
7143;DHT22;3613;48.902;9.204;2023-09-08T02:41:39;12.90;99.90
7143;DHT22;3613;48.902;9.204;2023-09-08T02:44:05;12.90;99.90
7143;DHT22;3613;48.902;9.204;2023-09-08T02:46:32;12.80;99.90
7143;DHT22;3613;48.902;9.204;2023-09-08T02:49:00;12.90;99.90
7143;DHT22;3613;48.902;9.204;2023-09-08T02:51:26;12.80;99.90
7143;DHT22;3613;48.902;9.204;2023-09-08T02:53:52;12.80;99.90
7143;DHT22;3613;48.902;9.204;2023-09-08T02:56:18;12.80;99.90
7143;DHT22;3613;48.902;9.204;2023-09-08T02:58:43;12.70;99.90
7143;DHT22;3613;48.902;9.204;2023-09-08T03:01:16;12.70;99.90
7143;DHT22;3613;48.902;9.204;2023-09-08T03:03:47;12.70;99.90
7143;DHT22;3613;48.902;9.204;2023-09-08T03:06:14;12.70;99.90
7143;DHT22;3613;48.902;9.204;2023-09-08T03:08:41;12.80;99.90
7143;DHT22;3613;48.902;9.204;2023-09-08T03:11:08;12.70;99.90
7143;DHT22;3613;48.902;9.204;2023-09-08T03:13:34;12.60;99.90
7143;DHT22;3613;48.902;9.204;2023-09-08T03:16:07;12.60;99.90
7143;DHT22;3613;48.902;9.204;2023-09-08T03:18:34;12.50;99.90
7143;DHT22;3613;48.902;9.204;2023-09-08T03:21:02;12.60;99.90
7143;DHT22;3613;48.902;9.204;2023-09-08T03:23:35;12.60;99.90
7143;DHT22;3613;48.902;9.204;2023-09-08T03:26:00;12.60;99.90
7143;DHT22;3613;48.902;9.204;2023-09-08T03:28:26;12.50;99.90
7143;DHT22;3613;48.902;9.204;2023-09-08T03:30:51;12.60;99.90
7143;DHT22;3613;48.902;9.204;2023-09-08T03:33:17;12.60;99.90
7143;DHT22;3613;48.902;9.204;2023-09-08T03:35:45;12.60;99.90
7143;DHT22;3613;48.902;9.204;2023-09-08T03:38:13;12.60;99.90
7143;DHT22;3613;48.902;9.204;2023-09-08T03:40:39;12.50;99.90
7143;DHT22;3613;48.902;9.204;2023-09-08T03:43:07;12.70;99.90
7143;DHT22;3613;48.902;9.204;2023-09-08T03:45:35;12.50;99.90
7143;DHT22;3613;48.902;9.204;2023-09-08T03:48:00;12.50;99.90
7143;DHT22;3613;48.902;9.204;2023-09-08T03:50:29;12.40;99.90
7143;DHT22;3613;48.902;9.204;2023-09-08T03:52:55;12.40;99.90
7143;DHT22;3613;48.902;9.204;2023-09-08T03:55:21;12.40;99.90
7143;DHT22;3613;48.902;9.204;2023-09-08T03:57:49;12.50;99.90
7143;DHT22;3613;48.902;9.204;2023-09-08T04:00:15;12.40;99.90
7143;DHT22;3613;48.902;9.204;2023-09-08T04:02:46;12.40;99.90
7143;DHT22;3613;48.902;9.204;2023-09-08T04:05:12;12.40;99.90
7143;DHT22;3613;48.902;9.204;2023-09-08T04:07:38;12.40;99.90
7143;DHT22;3613;48.902;9.204;2023-09-08T04:10:06;12.40;99.90
7143;DHT22;3613;48.902;9.204;2023-09-08T04:12:32;12.40;99.90
7143;DHT22;3613;48.902;9.204;2023-09-08T04:14:57;12.30;99.90
7143;DHT22;3613;48.902;9.204;2023-09-08T04:17:23;12.40;99.90
7143;DHT22;3613;48.902;9.204;2023-09-08T04:19:48;12.30;99.90
7143;DHT22;3613;48.902;9.204;2023-09-08T04:22:14;12.20;99.90
7143;DHT22;3613;48.902;9.204;2023-09-08T04:24:40;12.20;99.90
7143;DHT22;3613;48.902;9.204;2023-09-08T04:27:06;12.30;99.90
7143;DHT22;3613;48.902;9.204;2023-09-08T04:29:32;12.20;99.90
7143;DHT22;3613;48.902;9.204;2023-09-08T04:31:57;12.20;99.90
7143;DHT22;3613;48.902;9.204;2023-09-08T04:34:25;12.30;99.90
7143;DHT22;3613;48.902;9.204;2023-09-08T04:36:51;12.30;99.90
7143;DHT22;3613;48.902;9.204;2023-09-08T04:39:16;12.30;99.90
7143;DHT22;3613;48.902;9.204;2023-09-08T04:41:42;12.40;99.90
7143;DHT22;3613;48.902;9.204;2023-09-08T04:44:08;12.40;99.90
7143;DHT22;3613;48.902;9.204;2023-09-08T04:46:34;12.40;99.90
7143;DHT22;3613;48.902;9.204;2023-09-08T04:49:02;12.30;99.90
7143;DHT22;3613;48.902;9.204;2023-09-08T04:51:28;12.30;99.90
7143;DHT22;3613;48.902;9.204;2023-09-08T04:53:56;12.30;99.90
7143;DHT22;3613;48.902;9.204;2023-09-08T04:56:22;12.40;99.90
7143;DHT22;3613;48.902;9.204;2023-09-08T04:58:49;12.30;99.90
7143;DHT22;3613;48.902;9.204;2023-09-08T05:01:15;12.50;99.90
7143;DHT22;3613;48.902;9.204;2023-09-08T05:03:43;12.50;99.90
7143;DHT22;3613;48.902;9.204;2023-09-08T05:06:09;12.50;99.90
7143;DHT22;3613;48.902;9.204;2023-09-08T05:08:37;12.90;99.90
7143;DHT22;3613;48.902;9.204;2023-09-08T05:11:02;13.80;99.90
7143;DHT22;3613;48.902;9.204;2023-09-08T05:13:28;14.20;99.90
7143;DHT22;3613;48.902;9.204;2023-09-08T05:15:53;14.90;99.90
7143;DHT22;3613;48.902;9.204;2023-09-08T05:18:28;15.50;99.90
7143;DHT22;3613;48.902;9.204;2023-09-08T05:20:54;16.20;99.90
7143;DHT22;3613;48.902;9.204;2023-09-08T05:23:24;16.70;99.90
7143;DHT22;3613;48.902;9.204;2023-09-08T05:25:50;17.40;1.00
7143;DHT22;3613;48.902;9.204;2023-09-08T05:28:15;18.00;1.00
7143;DHT22;3613;48.902;9.204;2023-09-08T05:30:41;18.90;1.00
7143;DHT22;3613;48.902;9.204;2023-09-08T05:33:09;19.70;99.90
7143;DHT22;3613;48.902;9.204;2023-09-08T05:35:35;20.40;1.00
7143;DHT22;3613;48.902;9.204;2023-09-08T05:38:01;21.10;1.00
7143;DHT22;3613;48.902;9.204;2023-09-08T05:40:27;22.30;1.00
7143;DHT22;3613;48.902;9.204;2023-09-08T05:42:58;22.30;1.00
7143;DHT22;3613;48.902;9.204;2023-09-08T05:45:26;22.80;1.00
7143;DHT22;3613;48.902;9.204;2023-09-08T05:47:52;23.10;1.00
7143;DHT22;3613;48.902;9.204;2023-09-08T05:50:17;23.40;1.00
7143;DHT22;3613;48.902;9.204;2023-09-08T05:52:46;23.60;99.90
7143;DHT22;3613;48.902;9.204;2023-09-08T05:55:11;23.90;1.00
7143;DHT22;3613;48.902;9.204;2023-09-08T05:57:39;24.30;1.00
7143;DHT22;3613;48.902;9.204;2023-09-08T06:00:09;24.90;99.90
7143;DHT22;3613;48.902;9.204;2023-09-08T06:02:35;25.30;1.00
7143;DHT22;3613;48.902;9.204;2023-09-08T06:05:00;25.70;1.00
7143;DHT22;3613;48.902;9.204;2023-09-08T06:07:28;26.20;99.90
7143;DHT22;3613;48.902;9.204;2023-09-08T06:09:54;26.50;30.80
7143;DHT22;3613;48.902;9.204;2023-09-08T06:12:19;26.70;1.00
7143;DHT22;3613;48.902;9.204;2023-09-08T06:14:45;27.20;1.00
7143;DHT22;3613;48.902;9.204;2023-09-08T06:17:13;27.50;1.00
7143;DHT22;3613;48.902;9.204;2023-09-08T06:19:38;27.90;99.90
7143;DHT22;3613;48.902;9.204;2023-09-08T06:22:06;28.30;1.00
7143;DHT22;3613;48.902;9.204;2023-09-08T06:24:32;28.80;1.00
7143;DHT22;3613;48.902;9.204;2023-09-08T06:26:57;28.80;1.00
7143;DHT22;3613;48.902;9.204;2023-09-08T06:29:25;29.30;1.00
7143;DHT22;3613;48.902;9.204;2023-09-08T06:31:51;29.40;1.50
7143;DHT22;3613;48.902;9.204;2023-09-08T06:34:16;29.10;1.00
7143;DHT22;3613;48.902;9.204;2023-09-08T06:36:47;29.30;1.00
7143;DHT22;3613;48.902;9.204;2023-09-08T06:39:12;29.80;99.90
7143;DHT22;3613;48.902;9.204;2023-09-08T06:41:38;30.10;1.00
7143;DHT22;3613;48.902;9.204;2023-09-08T06:44:03;30.30;1.00
7143;DHT22;3613;48.902;9.204;2023-09-08T06:46:30;30.30;1.00
7143;DHT22;3613;48.902;9.204;2023-09-08T06:48:58;30.30;10.50
7143;DHT22;3613;48.902;9.204;2023-09-08T06:51:23;30.20;1.00
7143;DHT22;3613;48.902;9.204;2023-09-08T06:53:56;29.40;99.90
7143;DHT22;3613;48.902;9.204;2023-09-08T06:56:22;29.80;99.90
7143;DHT22;3613;48.902;9.204;2023-09-08T06:58:48;30.20;99.90
7143;DHT22;3613;48.902;9.204;2023-09-08T07:01:15;30.40;99.90
7143;DHT22;3613;48.902;9.204;2023-09-08T07:03:43;30.30;1.00
7143;DHT22;3613;48.902;9.204;2023-09-08T07:06:09;30.20;99.90
7143;DHT22;3613;48.902;9.204;2023-09-08T07:08:34;30.60;99.90
7143;DHT22;3613;48.902;9.204;2023-09-08T07:11:00;31.10;99.90
7143;DHT22;3613;48.902;9.204;2023-09-08T07:13:26;30.90;99.90
7143;DHT22;3613;48.902;9.204;2023-09-08T07:15:53;30.50;1.00
7143;DHT22;3613;48.902;9.204;2023-09-08T07:18:19;31.20;99.90
7143;DHT22;3613;48.902;9.204;2023-09-08T07:20:48;31.20;99.90
7143;DHT22;3613;48.902;9.204;2023-09-08T07:23:15;30.40;85.40
7143;DHT22;3613;48.902;9.204;2023-09-08T07:25:46;30.50;99.90
7143;DHT22;3613;48.902;9.204;2023-09-08T07:28:11;30.90;99.90
7143;DHT22;3613;48.902;9.204;2023-09-08T07:30:37;31.10;1.00
7143;DHT22;3613;48.902;9.204;2023-09-08T07:33:05;30.80;1.00
7143;DHT22;3613;48.902;9.204;2023-09-08T07:35:36;31.30;99.90
7143;DHT22;3613;48.902;9.204;2023-09-08T07:38:04;31.20;1.00
7143;DHT22;3613;48.902;9.204;2023-09-08T07:40:31;31.90;1.00
7143;DHT22;3613;48.902;9.204;2023-09-08T07:43:01;32.00;1.00
7143;DHT22;3613;48.902;9.204;2023-09-08T07:45:26;31.90;1.00
7143;DHT22;3613;48.902;9.204;2023-09-08T07:47:54;32.10;1.00
7143;DHT22;3613;48.902;9.204;2023-09-08T07:50:27;32.50;99.90
7143;DHT22;3613;48.902;9.204;2023-09-08T07:52:54;32.50;99.90
7143;DHT22;3613;48.902;9.204;2023-09-08T07:55:20;32.10;1.00
7143;DHT22;3613;48.902;9.204;2023-09-08T07:57:50;31.90;1.00
7143;DHT22;3613;48.902;9.204;2023-09-08T08:00:16;32.40;1.00
7143;DHT22;3613;48.902;9.204;2023-09-08T08:02:46;32.80;98.50
7143;DHT22;3613;48.902;9.204;2023-09-08T08:05:13;32.70;99.90
7143;DHT22;3613;48.902;9.204;2023-09-08T08:07:42;32.50;99.90
7143;DHT22;3613;48.902;9.204;2023-09-08T08:10:08;31.80;1.00
7143;DHT22;3613;48.902;9.204;2023-09-08T08:12:36;32.20;99.90
7143;DHT22;3613;48.902;9.204;2023-09-08T08:15:03;32.40;99.90
7143;DHT22;3613;48.902;9.204;2023-09-08T08:17:30;32.70;99.90
7143;DHT22;3613;48.902;9.204;2023-09-08T08:19:56;32.40;1.00
7143;DHT22;3613;48.902;9.204;2023-09-08T08:22:24;32.70;1.00
7143;DHT22;3613;48.902;9.204;2023-09-08T08:24:52;32.70;99.90
7143;DHT22;3613;48.902;9.204;2023-09-08T08:27:18;32.20;1.00
7143;DHT22;3613;48.902;9.204;2023-09-08T08:29:43;32.50;99.90
7143;DHT22;3613;48.902;9.204;2023-09-08T08:32:09;33.00;1.00
7143;DHT22;3613;48.902;9.204;2023-09-08T08:34:34;33.40;1.00
7143;DHT22;3613;48.902;9.204;2023-09-08T08:37:00;33.60;99.90
7143;DHT22;3613;48.902;9.204;2023-09-08T08:39:26;34.10;99.90
7143;DHT22;3613;48.902;9.204;2023-09-08T08:41:51;34.00;99.90
7143;DHT22;3613;48.902;9.204;2023-09-08T08:44:17;33.40;99.90
7143;DHT22;3613;48.902;9.204;2023-09-08T08:46:45;33.50;1.00
7143;DHT22;3613;48.902;9.204;2023-09-08T08:49:14;33.60;99.90
7143;DHT22;3613;48.902;9.204;2023-09-08T08:51:44;33.60;1.00
7143;DHT22;3613;48.902;9.204;2023-09-08T08:54:12;34.00;99.90
7143;DHT22;3613;48.902;9.204;2023-09-08T08:56:38;33.40;99.90
7143;DHT22;3613;48.902;9.204;2023-09-08T08:59:07;33.60;99.90
7143;DHT22;3613;48.902;9.204;2023-09-08T09:01:36;33.40;99.90
7143;DHT22;3613;48.902;9.204;2023-09-08T09:04:05;33.60;99.90
7143;DHT22;3613;48.902;9.204;2023-09-08T09:06:34;33.70;99.90
7143;DHT22;3613;48.902;9.204;2023-09-08T09:09:02;33.60;1.00
7143;DHT22;3613;48.902;9.204;2023-09-08T09:11:31;34.00;99.90
7143;DHT22;3613;48.902;9.204;2023-09-08T09:13:59;32.90;99.90
7143;DHT22;3613;48.902;9.204;2023-09-08T09:16:25;33.30;1.00
7143;DHT22;3613;48.902;9.204;2023-09-08T09:18:56;34.00;99.90
7143;DHT22;3613;48.902;9.204;2023-09-08T09:21:44;34.30;99.90
7143;DHT22;3613;48.902;9.204;2023-09-08T09:24:17;33.20;1.00
7143;DHT22;3613;48.902;9.204;2023-09-08T09:26:45;33.20;1.00
7143;DHT22;3613;48.902;9.204;2023-09-08T09:29:14;33.40;99.90
7143;DHT22;3613;48.902;9.204;2023-09-08T09:32:06;33.80;99.90
7143;DHT22;3613;48.902;9.204;2023-09-08T09:34:34;34.00;99.90
7143;DHT22;3613;48.902;9.204;2023-09-08T09:37:04;34.40;99.90
7143;DHT22;3613;48.902;9.204;2023-09-08T09:39:30;34.40;99.90
7143;DHT22;3613;48.902;9.204;2023-09-08T09:41:58;34.50;99.90
7143;DHT22;3613;48.902;9.204;2023-09-08T09:44:25;34.40;99.90
7143;DHT22;3613;48.902;9.204;2023-09-08T09:46:53;34.30;99.90
7143;DHT22;3613;48.902;9.204;2023-09-08T09:49:21;34.20;99.90
7143;DHT22;3613;48.902;9.204;2023-09-08T09:51:49;33.70;1.00
7143;DHT22;3613;48.902;9.204;2023-09-08T09:54:19;33.70;99.90
7143;DHT22;3613;48.902;9.204;2023-09-08T09:56:45;33.70;99.90
7143;DHT22;3613;48.902;9.204;2023-09-08T09:59:14;33.70;99.90
7143;DHT22;3613;48.902;9.204;2023-09-08T10:01:41;33.60;99.90
7143;DHT22;3613;48.902;9.204;2023-09-08T10:04:07;33.50;99.90
7143;DHT22;3613;48.902;9.204;2023-09-08T10:06:34;33.50;99.90
7143;DHT22;3613;48.902;9.204;2023-09-08T10:09:01;33.70;99.90
7143;DHT22;3613;48.902;9.204;2023-09-08T10:11:44;33.30;99.90
7143;DHT22;3613;48.902;9.204;2023-09-08T10:14:15;32.90;99.90
7143;DHT22;3613;48.902;9.204;2023-09-08T10:16:46;32.50;99.90
7143;DHT22;3613;48.902;9.204;2023-09-08T10:19:15;32.60;1.00
7143;DHT22;3613;48.902;9.204;2023-09-08T10:21:42;32.20;99.90
7143;DHT22;3613;48.902;9.204;2023-09-08T10:24:23;32.10;1.00
7143;DHT22;3613;48.902;9.204;2023-09-08T10:29:28;32.10;99.90
7143;DHT22;3613;48.902;9.204;2023-09-08T10:31:57;32.20;1.00
7143;DHT22;3613;48.902;9.204;2023-09-08T10:34:24;32.20;99.90
7143;DHT22;3613;48.902;9.204;2023-09-08T10:36:52;32.10;1.00
7143;DHT22;3613;48.902;9.204;2023-09-08T10:39:31;31.70;94.50
7143;DHT22;3613;48.902;9.204;2023-09-08T10:42:23;31.40;1.00
7143;DHT22;3613;48.902;9.204;2023-09-08T10:44:58;31.20;1.00
7143;DHT22;3613;48.902;9.204;2023-09-08T10:50:17;31.30;16.10
7143;DHT22;3613;48.902;9.204;2023-09-08T10:52:53;31.80;99.90
7143;DHT22;3613;48.902;9.204;2023-09-08T10:58:30;31.60;99.90
7143;DHT22;3613;48.902;9.204;2023-09-08T11:01:00;31.70;1.00
7143;DHT22;3613;48.902;9.204;2023-09-08T11:06:10;31.80;1.00
7143;DHT22;3613;48.902;9.204;2023-09-08T11:08:43;31.80;99.90
7143;DHT22;3613;48.902;9.204;2023-09-08T11:11:11;32.10;10.80
7143;DHT22;3613;48.902;9.204;2023-09-08T11:13:37;32.20;99.90
7143;DHT22;3613;48.902;9.204;2023-09-08T11:16:03;32.00;1.00
7143;DHT22;3613;48.902;9.204;2023-09-08T11:18:33;32.00;1.00
7143;DHT22;3613;48.902;9.204;2023-09-08T11:21:00;31.90;1.00
7143;DHT22;3613;48.902;9.204;2023-09-08T11:23:27;32.20;99.90
7143;DHT22;3613;48.902;9.204;2023-09-08T11:25:53;32.60;99.90
7143;DHT22;3613;48.902;9.204;2023-09-08T11:28:22;33.00;99.90
7143;DHT22;3613;48.902;9.204;2023-09-08T11:30:48;33.10;1.00
7143;DHT22;3613;48.902;9.204;2023-09-08T11:33:21;33.20;1.00
7143;DHT22;3613;48.902;9.204;2023-09-08T11:35:53;34.00;1.00
7143;DHT22;3613;48.902;9.204;2023-09-08T11:38:27;34.60;99.90
7143;DHT22;3613;48.902;9.204;2023-09-08T11:40:57;34.40;99.90
7143;DHT22;3613;48.902;9.204;2023-09-08T11:43:26;33.90;99.90
7143;DHT22;3613;48.902;9.204;2023-09-08T11:45:54;34.40;99.90
7143;DHT22;3613;48.902;9.204;2023-09-08T11:48:24;34.80;1.00
7143;DHT22;3613;48.902;9.204;2023-09-08T11:50:53;34.80;99.90
7143;DHT22;3613;48.902;9.204;2023-09-08T11:53:20;34.70;1.00
7143;DHT22;3613;48.902;9.204;2023-09-08T11:55:46;34.80;99.90
7143;DHT22;3613;48.902;9.204;2023-09-08T11:58:12;35.10;1.00
7143;DHT22;3613;48.902;9.204;2023-09-08T12:00:38;35.70;23.20
7143;DHT22;3613;48.902;9.204;2023-09-08T12:03:12;36.30;59.80
7143;DHT22;3613;48.902;9.204;2023-09-08T12:05:38;36.80;99.90
7143;DHT22;3613;48.902;9.204;2023-09-08T12:08:07;37.00;99.90
7143;DHT22;3613;48.902;9.204;2023-09-08T12:10:45;37.00;99.90
7143;DHT22;3613;48.902;9.204;2023-09-08T12:13:19;37.20;99.90
7143;DHT22;3613;48.902;9.204;2023-09-08T12:15:45;36.70;99.90
7143;DHT22;3613;48.902;9.204;2023-09-08T12:18:12;36.60;99.90
7143;DHT22;3613;48.902;9.204;2023-09-08T12:20:41;36.20;99.90
7143;DHT22;3613;48.902;9.204;2023-09-08T12:23:19;36.20;99.90
7143;DHT22;3613;48.902;9.204;2023-09-08T12:25:46;36.50;99.90
7143;DHT22;3613;48.902;9.204;2023-09-08T12:28:16;36.10;99.90
7143;DHT22;3613;48.902;9.204;2023-09-08T12:30:42;36.60;99.90
7143;DHT22;3613;48.902;9.204;2023-09-08T12:33:08;37.20;99.90
7143;DHT22;3613;48.902;9.204;2023-09-08T12:35:35;37.60;99.90
7143;DHT22;3613;48.902;9.204;2023-09-08T12:38:03;38.20;99.90
7143;DHT22;3613;48.902;9.204;2023-09-08T12:40:34;38.30;99.90
7143;DHT22;3613;48.902;9.204;2023-09-08T12:43:00;38.60;99.90
7143;DHT22;3613;48.902;9.204;2023-09-08T12:45:33;37.90;1.00
7143;DHT22;3613;48.902;9.204;2023-09-08T12:48:00;37.50;1.00
7143;DHT22;3613;48.902;9.204;2023-09-08T12:50:27;36.90;10.10
7143;DHT22;3613;48.902;9.204;2023-09-08T12:52:53;37.50;99.90
7143;DHT22;3613;48.902;9.204;2023-09-08T12:55:21;37.60;1.00
7143;DHT22;3613;48.902;9.204;2023-09-08T12:57:49;37.00;99.90
7143;DHT22;3613;48.902;9.204;2023-09-08T13:00:15;36.70;1.00
7143;DHT22;3613;48.902;9.204;2023-09-08T13:02:41;36.30;1.00
7143;DHT22;3613;48.902;9.204;2023-09-08T13:05:07;36.20;1.00
7143;DHT22;3613;48.902;9.204;2023-09-08T13:07:36;36.30;1.00
7143;DHT22;3613;48.902;9.204;2023-09-08T13:10:07;36.30;1.00
7143;DHT22;3613;48.902;9.204;2023-09-08T13:12:32;36.60;1.00
7143;DHT22;3613;48.902;9.204;2023-09-08T13:15:01;36.40;69.70
7143;DHT22;3613;48.902;9.204;2023-09-08T13:17:26;35.90;1.00
7143;DHT22;3613;48.902;9.204;2023-09-08T13:19:54;35.40;1.00
7143;DHT22;3613;48.902;9.204;2023-09-08T13:22:22;34.60;1.00
7143;DHT22;3613;48.902;9.204;2023-09-08T13:24:50;33.60;1.00
7143;DHT22;3613;48.902;9.204;2023-09-08T13:27:20;32.80;1.00
7143;DHT22;3613;48.902;9.204;2023-09-08T13:29:45;32.30;99.90
7143;DHT22;3613;48.902;9.204;2023-09-08T13:32:16;31.60;99.90
7143;DHT22;3613;48.902;9.204;2023-09-08T13:34:42;31.00;1.00
7143;DHT22;3613;48.902;9.204;2023-09-08T13:37:12;30.60;99.90
7143;DHT22;3613;48.902;9.204;2023-09-08T13:39:38;30.20;1.00
7143;DHT22;3613;48.902;9.204;2023-09-08T13:42:03;29.90;1.00
7143;DHT22;3613;48.902;9.204;2023-09-08T13:44:29;29.70;1.00
7143;DHT22;3613;48.902;9.204;2023-09-08T13:46:57;29.60;1.00
7143;DHT22;3613;48.902;9.204;2023-09-08T13:49:23;29.50;24.10
7143;DHT22;3613;48.902;9.204;2023-09-08T13:51:52;29.30;1.00
7143;DHT22;3613;48.902;9.204;2023-09-08T13:54:19;29.20;1.00
7143;DHT22;3613;48.902;9.204;2023-09-08T13:57:01;29.20;1.00
7143;DHT22;3613;48.902;9.204;2023-09-08T13:59:27;29.20;1.00
7143;DHT22;3613;48.902;9.204;2023-09-08T14:01:59;29.30;1.00
7143;DHT22;3613;48.902;9.204;2023-09-08T14:04:25;29.30;1.00
7143;DHT22;3613;48.902;9.204;2023-09-08T14:06:50;29.20;1.00
7143;DHT22;3613;48.902;9.204;2023-09-08T14:09:18;29.20;1.00
7143;DHT22;3613;48.902;9.204;2023-09-08T14:11:46;29.10;99.90
7143;DHT22;3613;48.902;9.204;2023-09-08T14:14:12;29.10;99.90
7143;DHT22;3613;48.902;9.204;2023-09-08T14:16:37;29.10;99.90
7143;DHT22;3613;48.902;9.204;2023-09-08T14:19:03;29.10;82.70
7143;DHT22;3613;48.902;9.204;2023-09-08T14:21:29;29.00;1.00
7143;DHT22;3613;48.902;9.204;2023-09-08T14:23:55;29.10;1.00
7143;DHT22;3613;48.902;9.204;2023-09-08T14:26:21;29.00;99.90
7143;DHT22;3613;48.902;9.204;2023-09-08T14:28:47;29.00;99.90
7143;DHT22;3613;48.902;9.204;2023-09-08T14:31:13;29.10;99.90
7143;DHT22;3613;48.902;9.204;2023-09-08T14:33:38;29.10;99.90
7143;DHT22;3613;48.902;9.204;2023-09-08T14:36:04;29.00;99.90
7143;DHT22;3613;48.902;9.204;2023-09-08T14:38:32;29.00;99.90
7143;DHT22;3613;48.902;9.204;2023-09-08T14:41:00;29.00;75.30
7143;DHT22;3613;48.902;9.204;2023-09-08T14:43:27;29.10;12.40
7143;DHT22;3613;48.902;9.204;2023-09-08T14:45:53;29.10;99.90
7143;DHT22;3613;48.902;9.204;2023-09-08T14:48:19;29.10;1.00
7143;DHT22;3613;48.902;9.204;2023-09-08T14:50:45;29.00;1.00
7143;DHT22;3613;48.902;9.204;2023-09-08T14:53:11;29.00;1.00
7143;DHT22;3613;48.902;9.204;2023-09-08T14:55:37;28.90;1.00
7143;DHT22;3613;48.902;9.204;2023-09-08T14:58:05;28.80;1.00
7143;DHT22;3613;48.902;9.204;2023-09-08T15:00:31;28.80;1.00
7143;DHT22;3613;48.902;9.204;2023-09-08T15:02:57;28.80;99.90
7143;DHT22;3613;48.902;9.204;2023-09-08T15:05:23;28.80;99.90
7143;DHT22;3613;48.902;9.204;2023-09-08T15:07:53;28.80;1.00
7143;DHT22;3613;48.902;9.204;2023-09-08T15:10:19;28.80;4.50
7143;DHT22;3613;48.902;9.204;2023-09-08T15:12:45;28.70;1.00
7143;DHT22;3613;48.902;9.204;2023-09-08T15:15:13;28.60;1.00
7143;DHT22;3613;48.902;9.204;2023-09-08T15:17:39;28.60;1.00
7143;DHT22;3613;48.902;9.204;2023-09-08T15:20:07;28.60;99.90
7143;DHT22;3613;48.902;9.204;2023-09-08T15:22:34;28.50;99.90
7143;DHT22;3613;48.902;9.204;2023-09-08T15:25:00;28.40;1.00
7143;DHT22;3613;48.902;9.204;2023-09-08T15:27:28;28.40;99.80
7143;DHT22;3613;48.902;9.204;2023-09-08T15:29:53;28.40;99.90
7143;DHT22;3613;48.902;9.204;2023-09-08T15:32:19;28.40;99.90
7143;DHT22;3613;48.902;9.204;2023-09-08T15:34:45;28.30;99.90
7143;DHT22;3613;48.902;9.204;2023-09-08T15:37:15;28.20;1.00
7143;DHT22;3613;48.902;9.204;2023-09-08T15:39:43;28.10;99.90
7143;DHT22;3613;48.902;9.204;2023-09-08T15:42:12;28.10;99.90
7143;DHT22;3613;48.902;9.204;2023-09-08T15:44:38;28.10;1.00
7143;DHT22;3613;48.902;9.204;2023-09-08T15:47:03;28.10;1.00
7143;DHT22;3613;48.902;9.204;2023-09-08T15:49:29;28.00;1.00
7143;DHT22;3613;48.902;9.204;2023-09-08T15:51:54;27.90;1.00
7143;DHT22;3613;48.902;9.204;2023-09-08T15:54:20;27.80;1.00
7143;DHT22;3613;48.902;9.204;2023-09-08T15:56:48;27.80;1.00
7143;DHT22;3613;48.902;9.204;2023-09-08T15:59:14;27.70;1.00
7143;DHT22;3613;48.902;9.204;2023-09-08T16:01:40;27.70;1.00
7143;DHT22;3613;48.902;9.204;2023-09-08T16:04:05;27.80;1.00
7143;DHT22;3613;48.902;9.204;2023-09-08T16:06:37;27.80;1.00
7143;DHT22;3613;48.902;9.204;2023-09-08T16:09:02;27.70;99.90
7143;DHT22;3613;48.902;9.204;2023-09-08T16:11:30;27.60;99.90
7143;DHT22;3613;48.902;9.204;2023-09-08T16:13:55;27.60;1.00
7143;DHT22;3613;48.902;9.204;2023-09-08T16:16:23;27.60;59.40
7143;DHT22;3613;48.902;9.204;2023-09-08T16:18:55;27.60;1.00
7143;DHT22;3613;48.902;9.204;2023-09-08T16:21:24;27.60;1.00
7143;DHT22;3613;48.902;9.204;2023-09-08T16:23:52;27.60;1.00